createdAt,value
2023-02-11T00:00:42.348Z,101522.91
2023-02-11T00:03:09.326Z,101512.41
2023-02-11T00:05:35.967Z,101523.47
2023-02-11T00:08:02.523Z,101510.50
2023-02-11T00:10:29.116Z,101522.00
2023-02-11T00:12:55.956Z,101509.66
2023-02-11T00:15:22.635Z,101510.88
2023-02-11T00:17:49.180Z,101503.47
2023-02-11T00:20:16.034Z,101500.56
2023-02-11T00:22:42.586Z,101486.78
2023-02-11T00:25:09.344Z,101482.03
2023-02-11T00:27:37.190Z,101481.78
2023-02-11T00:30:05.394Z,101483.22
2023-02-11T00:32:32.081Z,101483.63
2023-02-11T00:34:58.712Z,101480.94
2023-02-11T00:37:25.303Z,101473.91
2023-02-11T00:39:51.893Z,101470.03
2023-02-11T00:42:18.590Z,101486.50
2023-02-11T00:44:45.154Z,101493.50
2023-02-11T00:47:11.768Z,101507.94
2023-02-11T00:49:40.369Z,101502.59
2023-02-11T00:52:07.254Z,101492.13
2023-02-11T00:54:33.846Z,101495.38
2023-02-11T00:57:00.450Z,101482.81
2023-02-11T00:59:27.199Z,101479.53
2023-02-11T01:01:53.870Z,101484.88
2023-02-11T01:04:20.572Z,101482.19
2023-02-11T01:06:47.265Z,101472.13
2023-02-11T01:09:13.851Z,101472.53
2023-02-11T01:11:40.425Z,101467.63
2023-02-11T01:14:07.121Z,101472.56
2023-02-11T01:16:33.872Z,101479.16
2023-02-11T01:19:00.427Z,101478.78
2023-02-11T01:21:27.041Z,101483.75
2023-02-11T01:23:53.633Z,101483.94
2023-02-11T01:26:20.173Z,101475.09
2023-02-11T01:28:46.849Z,101470.78
2023-02-11T01:31:13.822Z,101468.09
2023-02-11T01:33:40.840Z,101463.16
2023-02-11T01:36:08.105Z,101467.31
2023-02-11T01:38:35.161Z,101462.56
2023-02-11T01:41:05.205Z,101466.91
2023-02-11T01:43:36.465Z,101461.78
2023-02-11T01:46:31.383Z,101455.41
2023-02-11T01:49:04.110Z,101459.53
2023-02-11T01:51:48.245Z,101450.03
2023-02-11T01:54:38.564Z,101445.53
2023-02-11T01:57:22.162Z,101438.94
2023-02-11T02:00:00.495Z,101433.59
2023-02-11T02:02:31.422Z,101424.34
2023-02-11T02:05:20.684Z,101427.00
2023-02-11T02:08:12.666Z,101427.00
2023-02-11T02:10:43.665Z,101425.78
2023-02-11T02:13:10.963Z,101427.84
2023-02-11T02:15:39.824Z,101434.66
2023-02-11T02:18:33.726Z,101433.63
2023-02-11T02:21:05.905Z,101425.16
2023-02-11T02:23:50.604Z,101423.13
2023-02-11T02:27:03.977Z,101416.09
2023-02-11T02:29:45.703Z,101405.19
2023-02-11T02:32:21.425Z,101407.63
2023-02-11T02:34:58.108Z,101396.94
2023-02-11T02:37:33.601Z,101396.94
2023-02-11T02:40:04.648Z,101392.00
2023-02-11T02:42:32.201Z,101387.50
2023-02-11T02:44:58.909Z,101378.47
2023-02-11T02:47:25.464Z,101373.72
2023-02-11T02:49:52.022Z,101375.56
2023-02-11T02:52:33.686Z,101375.56
2023-02-11T02:55:09.724Z,101372.72
2023-02-11T02:57:55.077Z,101369.63
2023-02-11T03:00:49.432Z,101378.88
2023-02-11T03:03:15.982Z,101374.34
2023-02-11T03:06:04.476Z,101386.25
2023-02-11T03:08:44.977Z,101389.56
2023-02-11T03:11:15.305Z,101382.94
2023-02-11T03:13:43.698Z,101385.41
2023-02-11T03:16:25.559Z,101394.00
2023-02-11T03:19:10.649Z,101390.28
2023-02-11T03:21:40.549Z,101403.00
2023-02-11T03:24:12.614Z,101409.78
2023-02-11T03:26:45.818Z,101421.44
2023-02-11T03:29:33.556Z,101413.59
2023-02-11T03:32:03.226Z,101408.41
2023-02-11T03:34:44.440Z,101412.06
2023-02-11T03:37:25.723Z,101414.69
2023-02-11T03:39:57.344Z,101405.69
2023-02-11T03:42:30.144Z,101403.00
2023-02-11T03:45:08.212Z,101416.38
2023-02-11T03:47:38.252Z,101411.03
2023-02-11T03:50:08.048Z,101410.00
2023-02-11T03:52:38.188Z,101403.63
2023-02-11T03:55:10.634Z,101392.56
2023-02-11T03:57:37.984Z,101395.47
2023-02-11T04:00:05.708Z,101391.38
2023-02-11T04:02:35.173Z,101388.28
2023-02-11T04:05:01.987Z,101391.41
2023-02-11T04:07:28.897Z,101384.84
2023-02-11T04:09:55.439Z,101376.22
2023-02-11T04:12:22.384Z,101376.03
2023-02-11T04:14:48.927Z,101378.31
2023-02-11T04:17:15.478Z,101377.09
2023-02-11T04:19:42.067Z,101378.34
2023-02-11T04:22:09.014Z,101368.06
2023-02-11T04:24:35.711Z,101371.38
2023-02-11T04:27:02.469Z,101377.34
2023-02-11T04:29:29.009Z,101380.03
2023-02-11T04:31:55.828Z,101386.59
2023-02-11T04:34:24.538Z,101393.19
2023-02-11T04:36:51.270Z,101393.19
2023-02-11T04:39:17.925Z,101394.84
2023-02-11T04:41:44.505Z,101394.44
2023-02-11T04:44:11.151Z,101379.03
2023-02-11T04:46:37.710Z,101380.06
2023-02-11T04:49:04.325Z,101362.59
2023-02-11T04:51:31.059Z,101359.06
2023-02-11T04:53:57.631Z,101365.63
2023-02-11T04:56:24.356Z,101376.50
2023-02-11T04:58:50.927Z,101389.84
2023-02-11T05:01:17.673Z,101394.56
2023-02-11T05:03:44.478Z,101384.09
2023-02-11T05:06:11.722Z,101365.97
2023-02-11T05:08:38.376Z,101361.44
2023-02-11T05:11:05.499Z,101349.47
2023-02-11T05:13:32.522Z,101343.72
2023-02-11T05:15:59.403Z,101337.16
2023-02-11T05:18:25.995Z,101341.44
2023-02-11T05:20:52.511Z,101346.72
2023-02-11T05:23:19.095Z,101344.00
2023-02-11T05:25:45.625Z,101349.56
2023-02-11T05:28:12.188Z,101344.63
2023-02-11T05:30:38.896Z,101346.47
2023-02-11T05:33:05.497Z,101355.50
2023-02-11T05:35:32.216Z,101361.84
2023-02-11T05:37:58.823Z,101358.34
2023-02-11T05:40:25.346Z,101361.41
2023-02-11T05:42:51.889Z,101356.69
2023-02-11T05:45:18.624Z,101360.31
2023-02-11T05:47:45.256Z,101358.63
2023-02-11T05:50:11.821Z,101363.50
2023-02-11T05:52:38.500Z,101366.50
2023-02-11T05:55:05.803Z,101371.53
2023-02-11T05:57:32.435Z,101361.81
2023-02-11T05:59:59.030Z,101353.31
2023-02-11T06:02:25.775Z,101353.50
2023-02-11T06:04:52.353Z,101357.22
2023-02-11T06:07:19.797Z,101357.94
2023-02-11T06:09:46.378Z,101351.13
2023-02-11T06:12:12.950Z,101344.53
2023-02-11T06:14:39.532Z,101346.63
2023-02-11T06:17:06.148Z,101348.25
2023-02-11T06:19:32.771Z,101352.13
2023-02-11T06:21:59.344Z,101350.94
2023-02-11T06:24:48.113Z,101352.63
2023-02-11T06:27:12.664Z,101362.88
2023-02-11T06:29:39.278Z,101360.38
2023-02-11T06:32:05.961Z,101372.22
2023-02-11T06:34:32.703Z,101358.19
2023-02-11T06:36:59.273Z,101358.09
2023-02-11T06:39:25.801Z,101358.38
2023-02-11T06:41:52.461Z,101360.13
2023-02-11T06:44:19.047Z,101354.25
2023-02-11T06:46:45.719Z,101351.06
2023-02-11T06:49:12.435Z,101342.78
2023-02-11T06:51:38.979Z,101346.16
2023-02-11T06:54:06.447Z,101347.69
2023-02-11T06:56:33.664Z,101363.81
2023-02-11T06:59:00.414Z,101370.47
2023-02-11T07:01:28.697Z,101384.75
2023-02-11T07:03:55.976Z,101397.19
2023-02-11T07:06:27.233Z,101397.94
2023-02-11T07:08:55.120Z,101409.31
2023-02-11T07:11:26.917Z,101411.56
2023-02-11T07:13:56.499Z,101405.13
2023-02-11T07:16:23.390Z,101407.97
2023-02-11T07:18:50.030Z,101405.50
2023-02-11T07:21:19.605Z,101412.50
2023-02-11T07:23:47.170Z,101424.41
2023-02-11T07:26:16.481Z,101419.34
2023-02-11T07:28:44.081Z,101412.25
2023-02-11T07:31:13.668Z,101413.53
2023-02-11T07:33:40.953Z,101416.09
2023-02-11T07:36:10.000Z,101416.97
2023-02-11T07:38:38.247Z,101419.16
2023-02-11T07:41:10.826Z,101412.69
2023-02-11T07:43:38.335Z,101420.19
2023-02-11T07:46:10.855Z,101415.72
2023-02-11T07:48:37.700Z,101417.91
2023-02-11T07:51:22.607Z,101423.09
2023-02-11T07:53:49.384Z,101423.56
2023-02-11T07:56:17.687Z,101432.47
2023-02-11T07:58:44.842Z,101432.97
2023-02-11T08:01:15.201Z,101435.47
2023-02-11T08:03:44.581Z,101430.63
2023-02-11T08:06:14.097Z,101431.31
2023-02-11T08:08:40.826Z,101436.03
2023-02-11T08:11:21.845Z,101444.31
2023-02-11T08:13:48.753Z,101446.81
2023-02-11T08:16:29.898Z,101444.78
2023-02-11T08:18:58.817Z,101435.34
2023-02-11T08:21:26.373Z,101434.94
2023-02-11T08:23:53.752Z,101445.91
2023-02-11T08:26:23.086Z,101444.25
2023-02-11T08:28:51.590Z,101441.63
2023-02-11T08:31:40.694Z,101438.38
2023-02-11T08:34:07.599Z,101442.94
2023-02-11T08:36:36.249Z,101445.84
2023-02-11T08:39:22.493Z,101451.41
2023-02-11T08:41:51.943Z,101451.66
2023-02-11T08:44:19.924Z,101458.84
2023-02-11T08:46:47.249Z,101456.78
2023-02-11T08:49:14.674Z,101445.50
2023-02-11T08:51:41.617Z,101459.31
2023-02-11T08:54:09.924Z,101461.41
2023-02-11T08:56:38.302Z,101460.81
2023-02-11T08:59:06.137Z,101464.97
2023-02-11T09:01:33.765Z,101476.91
2023-02-11T09:04:01.240Z,101475.28
2023-02-11T09:06:28.357Z,101478.56
2023-02-11T09:08:56.900Z,101493.19
2023-02-11T09:11:30.748Z,101477.13
2023-02-11T09:13:58.263Z,101471.97
2023-02-11T09:16:28.058Z,101470.78
2023-02-11T09:18:57.081Z,101476.97
2023-02-11T09:21:23.688Z,101473.69
2023-02-11T09:23:50.603Z,101471.00
2023-02-11T09:26:20.271Z,101472.47
2023-02-11T09:28:48.033Z,101465.88
2023-02-11T09:31:17.783Z,101459.28
2023-02-11T09:33:49.820Z,101463.78
2023-02-11T09:36:18.468Z,101471.22
2023-02-11T09:38:45.740Z,101477.38
2023-02-11T09:41:24.360Z,101472.44
2023-02-11T09:43:57.565Z,101470.59
2023-02-11T09:46:26.071Z,101469.16
2023-02-11T09:48:55.495Z,101461.94
2023-02-11T09:51:53.502Z,101473.72
2023-02-11T09:54:36.956Z,101474.53
2023-02-11T09:57:06.230Z,101471.44
2023-02-11T09:59:32.904Z,101489.78
2023-02-11T10:02:12.164Z,101475.53
2023-02-11T10:05:03.327Z,101483.16
2023-02-11T10:07:40.740Z,101486.69
2023-02-11T10:10:19.876Z,101488.94
2023-02-11T10:12:52.521Z,101485.66
2023-02-11T10:15:33.363Z,101508.31
2023-02-11T10:18:00.211Z,101499.28
2023-02-11T10:20:38.619Z,101509.56
2023-02-11T10:23:27.223Z,101505.06
2023-02-11T10:25:56.408Z,101506.28
2023-02-11T10:28:36.912Z,101507.94
2023-02-11T10:31:07.021Z,101509.16
2023-02-11T10:33:45.883Z,101505.44
2023-02-11T10:36:14.568Z,101511.22
2023-02-11T10:38:41.125Z,101509.97
2023-02-11T10:41:13.830Z,101506.66
2023-02-11T10:43:42.628Z,101502.97
2023-02-11T10:46:29.543Z,101503.38
2023-02-11T10:48:56.197Z,101505.03
2023-02-11T10:51:23.904Z,101496.78
2023-02-11T10:54:08.172Z,101487.91
2023-02-11T10:56:37.965Z,101488.50
2023-02-11T10:59:18.135Z,101478.59
2023-02-11T11:01:52.678Z,101475.28
2023-02-11T11:04:37.396Z,101485.16
2023-02-11T11:07:26.023Z,101482.66
2023-02-11T11:10:02.585Z,101485.59
2023-02-11T11:12:48.457Z,101489.72
2023-02-11T11:15:22.731Z,101478.34
2023-02-11T11:17:50.648Z,101480.41
2023-02-11T11:20:27.600Z,101481.84
2023-02-11T11:23:10.728Z,101488.03
2023-02-11T11:25:41.540Z,101477.69
2023-02-11T11:28:20.235Z,101478.47
2023-02-11T11:30:47.028Z,101473.09
2023-02-11T11:37:32.906Z,101461.16
2023-02-11T11:40:07.731Z,101453.28
2023-02-11T11:42:37.217Z,101448.66
2023-02-11T11:45:25.839Z,101448.25
2023-02-11T11:48:04.162Z,101452.28
2023-02-11T11:50:56.106Z,101448.13
2023-02-11T11:53:40.416Z,101436.75
2023-02-11T11:56:16.147Z,101441.63
2023-02-11T11:58:42.936Z,101433.81
2023-02-11T12:01:39.582Z,101426.56
2023-02-11T12:04:06.351Z,101425.47
2023-02-11T12:07:05.295Z,101433.31
2023-02-11T12:09:41.925Z,101426.94
2023-02-11T12:12:20.944Z,101433.88
2023-02-11T12:14:50.185Z,101422.19
2023-02-11T12:17:34.785Z,101425.88
2023-02-11T12:20:27.950Z,101427.06
2023-02-11T12:23:27.422Z,101423.53
2023-02-11T12:26:00.001Z,101421.09
2023-02-11T12:28:43.979Z,101416.84
2023-02-11T12:31:25.859Z,101407.41
2023-02-11T12:33:52.437Z,101419.22
2023-02-11T12:36:24.934Z,101420.25
2023-02-11T12:38:57.527Z,101416.53
2023-02-11T12:42:09.957Z,101418.72
2023-02-11T12:45:14.259Z,101412.38
2023-02-11T12:48:08.528Z,101419.91
2023-02-11T12:50:41.418Z,101416.84
2023-02-11T12:53:14.034Z,101410.28
2023-02-11T12:55:45.076Z,101409.69
2023-02-11T12:58:35.529Z,101404.47
2023-02-11T13:01:16.245Z,101408.50
2023-02-11T13:03:56.620Z,101410.91
2023-02-11T13:06:31.298Z,101408.97
2023-02-11T13:09:03.994Z,101404.78
2023-02-11T13:11:39.491Z,101410.28
2023-02-11T13:14:28.527Z,101409.09
2023-02-11T13:16:57.105Z,101410.72
2023-02-11T13:19:29.164Z,101398.69
2023-02-11T13:22:02.470Z,101400.53
2023-02-11T13:24:48.088Z,101396.16
2023-02-11T13:27:38.865Z,101401.97
2023-02-11T13:30:29.131Z,101396.84
2023-02-11T13:32:55.649Z,101394.16
2023-02-11T13:35:40.193Z,101400.81
2023-02-11T13:38:24.083Z,101388.44
2023-02-11T13:41:22.333Z,101386.41
2023-02-11T13:44:26.187Z,101374.06
2023-02-11T13:47:05.022Z,101376.97
2023-02-11T13:49:33.630Z,101365.81
2023-02-11T13:52:03.356Z,101372.66
2023-02-11T13:54:37.745Z,101364.59
2023-02-11T13:57:26.963Z,101366.00
2023-02-11T14:00:21.121Z,101372.97
2023-02-11T14:03:32.274Z,101372.97
2023-02-11T14:06:26.595Z,101360.84
2023-02-11T14:09:08.737Z,101361.75
2023-02-11T14:11:36.988Z,101359.00
2023-02-11T14:14:18.887Z,101362.13
2023-02-11T14:17:06.807Z,101361.75
2023-02-11T14:19:38.071Z,101358.00
2023-02-11T14:22:11.892Z,101362.34
2023-02-11T14:24:38.423Z,101365.50
2023-02-11T14:27:15.758Z,101362.19
2023-02-11T14:29:51.270Z,101350.19
2023-02-11T14:32:32.280Z,101346.53
2023-02-11T14:35:01.611Z,101346.06
2023-02-11T14:37:34.724Z,101345.63
2023-02-11T14:40:22.692Z,101354.72
2023-02-11T14:42:52.001Z,101344.72
2023-02-11T14:45:23.101Z,101354.59
2023-02-11T14:47:53.925Z,101344.19
2023-02-11T14:50:33.888Z,101353.00
2023-02-11T14:53:02.989Z,101348.63
2023-02-11T14:55:37.565Z,101355.56
2023-02-11T14:58:12.601Z,101346.81
2023-02-11T15:00:51.649Z,101340.97
2023-02-11T15:03:48.096Z,101340.53
2023-02-11T15:06:28.183Z,101332.69
2023-02-11T15:09:00.973Z,101339.72
2023-02-11T15:11:31.912Z,101334.69
2023-02-11T15:14:06.857Z,101343.00
2023-02-11T15:16:34.583Z,101344.84
2023-02-11T15:19:04.573Z,101349.63
2023-02-11T15:21:34.366Z,101352.19
2023-02-11T15:24:06.356Z,101351.22
2023-02-11T15:26:32.932Z,101350.09
2023-02-11T15:29:00.225Z,101349.50
2023-02-11T15:31:28.389Z,101353.22
2023-02-11T15:33:55.347Z,101354.53
2023-02-11T15:36:28.808Z,101359.50
2023-02-11T15:39:17.370Z,101359.84
2023-02-11T15:41:44.748Z,101358.78
2023-02-11T15:44:28.491Z,101368.69
2023-02-11T15:46:55.324Z,101366.59
2023-02-11T15:49:23.597Z,101363.13
2023-02-11T15:51:51.971Z,101362.53
2023-02-11T15:54:26.753Z,101365.81
2023-02-11T15:56:59.018Z,101360.84
2023-02-11T15:59:38.456Z,101358.84
2023-02-11T16:02:08.173Z,101371.00
2023-02-11T16:04:36.173Z,101370.41
2023-02-11T16:07:03.252Z,101372.88
2023-02-11T16:09:34.456Z,101373.28
2023-02-11T16:12:04.676Z,101377.75
2023-02-11T16:14:34.822Z,101383.47
2023-02-11T16:17:26.331Z,101382.22
2023-02-11T16:19:54.001Z,101379.31
2023-02-11T16:22:30.117Z,101382.22
2023-02-11T16:25:00.031Z,101376.38
2023-02-11T16:27:40.978Z,101383.41
2023-02-11T16:30:27.378Z,101390.44
2023-02-11T16:32:54.490Z,101386.25
2023-02-11T16:35:21.146Z,101380.47
2023-02-11T16:37:47.701Z,101380.00
2023-02-11T16:40:14.445Z,101374.16
2023-02-11T16:42:41.099Z,101375.34
2023-02-11T16:45:08.949Z,101378.03
2023-02-11T16:47:38.783Z,101384.25
2023-02-11T16:50:09.777Z,101386.56
2023-02-11T16:52:37.518Z,101390.75
2023-02-11T16:55:06.119Z,101391.63
2023-02-11T16:57:32.651Z,101396.03
2023-02-11T16:59:59.935Z,101396.25
2023-02-11T17:02:30.504Z,101403.72
2023-02-11T17:05:00.798Z,101409.50
2023-02-11T17:07:28.222Z,101406.56
2023-02-11T17:09:55.210Z,101408.81
2023-02-11T17:12:21.838Z,101411.50
2023-02-11T17:14:48.398Z,101411.50
2023-02-11T17:17:16.388Z,101415.63
2023-02-11T17:19:43.516Z,101421.84
2023-02-11T17:22:11.457Z,101417.94
2023-02-11T17:24:38.070Z,101421.47
2023-02-11T17:27:04.679Z,101422.28
2023-02-11T17:29:31.288Z,101429.28
2023-02-11T17:31:57.900Z,101435.50
2023-02-11T17:34:24.578Z,101436.34
2023-02-11T17:36:51.883Z,101436.34
2023-02-11T17:39:21.004Z,101433.41
2023-02-11T17:41:47.693Z,101437.16
2023-02-11T17:44:15.528Z,101442.75
2023-02-11T17:46:42.186Z,101439.03
2023-02-11T17:49:10.139Z,101435.72
2023-02-11T17:51:38.672Z,101444.84
2023-02-11T17:54:08.292Z,101442.56
2023-02-11T17:56:36.633Z,101446.75
2023-02-11T17:59:06.466Z,101450.03
2023-02-11T18:01:34.084Z,101442.56
2023-02-11T18:04:01.505Z,101447.94
2023-02-11T18:06:29.145Z,101445.09
2023-02-11T18:08:59.710Z,101450.56
2023-02-11T18:11:27.985Z,101450.56
2023-02-11T18:13:54.670Z,101446.66
2023-02-11T18:16:23.195Z,101454.13
2023-02-11T18:18:50.566Z,101450.59
2023-02-11T18:21:19.895Z,101446.88
2023-02-11T18:23:46.617Z,101447.72
2023-02-11T18:26:15.114Z,101446.66
2023-02-11T18:28:45.255Z,101443.16
2023-02-11T18:31:14.094Z,101443.59
2023-02-11T18:33:41.870Z,101446.50
2023-02-11T18:36:11.465Z,101452.69
2023-02-11T18:38:38.573Z,101455.19
2023-02-11T18:41:07.235Z,101452.25
2023-02-11T18:43:34.556Z,101456.00
2023-02-11T18:46:02.958Z,101459.72
2023-02-11T18:48:29.583Z,101452.69
2023-02-11T18:50:56.233Z,101447.31
2023-02-11T18:53:23.652Z,101450.47
2023-02-11T18:55:51.261Z,101442.03
2023-02-11T18:58:18.202Z,101438.97
2023-02-11T19:00:47.329Z,101448.28
2023-02-11T19:03:14.141Z,101455.13
2023-02-11T19:05:48.906Z,101465.50
2023-02-11T19:08:17.070Z,101458.13
2023-02-11T19:10:48.019Z,101471.75
2023-02-11T19:13:14.829Z,101475.72
2023-02-11T19:15:42.619Z,101466.22
2023-02-11T19:18:09.542Z,101474.91
2023-02-11T19:20:39.820Z,101472.81
2023-02-11T19:23:06.479Z,101477.38
2023-02-11T19:25:33.844Z,101470.34
2023-02-11T19:28:00.530Z,101476.34
2023-02-11T19:30:27.486Z,101475.28
2023-02-11T19:32:57.095Z,101480.44
2023-02-11T19:35:24.835Z,101482.91
2023-02-11T19:37:51.451Z,101483.28
2023-02-11T19:40:18.447Z,101479.56
2023-02-11T19:42:44.994Z,101477.25
2023-02-11T19:45:11.898Z,101473.50
2023-02-11T19:47:38.772Z,101477.69
2023-02-11T19:50:06.140Z,101474.59
2023-02-11T19:52:32.766Z,101478.78
2023-02-11T19:55:00.216Z,101475.28
2023-02-11T19:57:26.816Z,101471.75
2023-02-11T19:59:55.037Z,101476.53
2023-02-11T20:02:21.835Z,101473.47
2023-02-11T20:04:48.654Z,101473.69
2023-02-11T20:07:15.188Z,101475.19
2023-02-11T20:09:42.668Z,101471.88
2023-02-11T20:12:09.854Z,101469.41
2023-02-11T20:14:36.514Z,101466.31
2023-02-11T20:17:03.125Z,101468.41
2023-02-11T20:19:30.768Z,101468.41
2023-02-11T20:21:57.570Z,101466.78
2023-02-11T20:24:25.356Z,101473.78
2023-02-11T20:26:55.528Z,101472.13
2023-02-11T20:29:23.654Z,101468.41
2023-02-11T20:31:50.811Z,101468.41
2023-02-11T20:34:18.276Z,101464.69
2023-02-11T20:36:51.796Z,101460.94
2023-02-11T20:39:18.922Z,101458.06
2023-02-11T20:41:46.335Z,101459.91
2023-02-11T20:44:13.938Z,101464.69
2023-02-11T20:46:47.938Z,101455.22
2023-02-11T20:49:17.170Z,101467.59
2023-02-11T20:51:44.249Z,101464.09
2023-02-11T20:54:17.216Z,101461.41
2023-02-11T20:56:47.461Z,101464.91
2023-02-11T20:59:16.407Z,101470.50
2023-02-11T21:01:46.577Z,101476.09
2023-02-11T21:04:19.073Z,101471.53
2023-02-11T21:06:47.977Z,101468.66
2023-02-11T21:09:19.673Z,101475.44
2023-02-11T21:11:47.010Z,101462.59
2023-02-11T21:14:13.720Z,101464.25
2023-02-11T21:16:40.979Z,101471.28
2023-02-11T21:19:07.582Z,101471.28
2023-02-11T21:21:38.701Z,101468.81
2023-02-11T21:24:07.139Z,101472.13
2023-02-11T21:26:35.422Z,101472.59
2023-02-11T21:29:03.794Z,101465.78
2023-02-11T21:31:32.812Z,101466.59
2023-02-11T21:34:00.061Z,101471.38
2023-02-11T21:36:28.705Z,101463.31
2023-02-11T21:38:55.735Z,101463.91
2023-02-11T21:41:22.715Z,101462.69
2023-02-11T21:43:50.279Z,101471.34
2023-02-11T21:46:18.140Z,101473.34
2023-02-11T21:48:44.769Z,101474.56
2023-02-11T21:51:18.037Z,101477.25
2023-02-11T21:53:44.642Z,101486.38
2023-02-11T21:56:16.901Z,101484.09
2023-02-11T21:58:44.539Z,101481.63
2023-02-11T22:01:22.676Z,101487.00
2023-02-11T22:03:49.748Z,101484.97
2023-02-11T22:06:22.442Z,101490.59
2023-02-11T22:08:50.336Z,101497.00
2023-02-11T22:11:17.700Z,101497.41
2023-02-11T22:13:45.120Z,101489.13
2023-02-11T22:16:14.830Z,101496.16
2023-02-11T22:18:42.781Z,101497.81
2023-02-11T22:21:12.639Z,101492.00
2023-02-11T22:23:39.908Z,101495.28
2023-02-11T22:26:09.990Z,101496.47
2023-02-11T22:28:39.015Z,101494.00
2023-02-11T22:31:05.721Z,101493.53
2023-02-11T22:33:32.689Z,101488.78
2023-02-11T22:36:06.126Z,101487.53
2023-02-11T22:38:33.878Z,101489.31
2023-02-11T22:41:06.337Z,101486.63
2023-02-11T22:43:32.864Z,101474.84
2023-02-11T22:46:03.536Z,101488.66
2023-02-11T22:48:30.163Z,101487.63
2023-02-11T22:50:56.895Z,101482.25
2023-02-11T22:53:25.537Z,101484.94
2023-02-11T22:55:52.502Z,101489.47
2023-02-11T22:58:19.210Z,101491.78
2023-02-11T23:00:45.778Z,101487.25
2023-02-11T23:03:12.895Z,101487.00
2023-02-11T23:05:42.574Z,101489.69
2023-02-11T23:08:10.992Z,101494.03
2023-02-11T23:10:39.706Z,101489.69
2023-02-11T23:13:07.574Z,101492.38
2023-02-11T23:15:34.361Z,101496.69
2023-02-11T23:18:01.189Z,101508.09
2023-02-11T23:20:27.828Z,101506.22
2023-02-11T23:22:54.386Z,101504.56
2023-02-11T23:25:21.186Z,101505.59
2023-02-11T23:27:47.865Z,101494.84
2023-02-11T23:30:14.727Z,101500.44
2023-02-11T23:32:41.358Z,101511.63
2023-02-11T23:35:08.313Z,101505.66
2023-02-11T23:37:34.887Z,101506.94
2023-02-11T23:40:01.459Z,101512.94
2023-02-11T23:42:29.182Z,101511.31
2023-02-11T23:44:55.687Z,101510.91
2023-02-11T23:47:22.206Z,101513.84
2023-02-11T23:49:48.776Z,101507.84
2023-02-11T23:52:15.375Z,101508.66
2023-02-11T23:54:43.371Z,101508.47
2023-02-11T23:57:09.998Z,101508.47
2023-02-11T23:59:36.626Z,101507.84
